createdAt,value
2019-02-22T00:02:45.579Z,14.60
2019-02-22T00:07:51.038Z,14.30
2019-02-22T00:12:56.506Z,14.60
2019-02-22T00:18:01.987Z,14.50
2019-02-22T00:23:07.529Z,14.70
2019-02-22T00:28:13.057Z,15.00
2019-02-22T00:33:18.527Z,15.00
2019-02-22T00:38:27.053Z,15.20
2019-02-22T00:43:32.182Z,15.20
2019-02-22T00:48:38.975Z,14.60
2019-02-22T00:53:44.400Z,14.10
2019-02-22T00:58:49.855Z,14.00
2019-02-22T01:03:55.470Z,14.00
2019-02-22T01:09:00.941Z,14.00
2019-02-22T01:14:07.961Z,14.00
2019-02-22T01:19:13.382Z,14.00
2019-02-22T01:24:18.841Z,13.70
2019-02-22T01:29:24.261Z,13.30
2019-02-22T01:34:29.714Z,13.40
2019-02-22T01:39:36.005Z,13.40
2019-02-22T01:44:41.556Z,13.00
2019-02-22T01:49:47.260Z,12.90
2019-02-22T01:54:52.890Z,12.40
2019-02-22T01:59:58.408Z,12.10
2019-02-22T02:05:05.657Z,11.90
2019-02-22T02:10:11.359Z,11.20
2019-02-22T02:15:17.060Z,9.90
2019-02-22T02:20:22.562Z,9.10
2019-02-22T02:25:27.997Z,9.30
2019-02-22T02:30:33.685Z,9.20
2019-02-22T02:35:39.132Z,9.00
2019-02-22T02:41:07.084Z,8.90
2019-02-22T02:46:03.816Z,8.60
2019-02-22T02:51:09.278Z,8.20
2019-02-22T02:56:14.828Z,8.40
2019-02-22T03:01:20.315Z,8.60
2019-02-22T03:06:33.213Z,8.90
2019-02-22T03:11:38.658Z,9.50
2019-02-22T03:16:44.053Z,8.90
2019-02-22T03:21:49.497Z,8.30
2019-02-22T03:26:55.053Z,8.10
2019-02-22T03:32:00.502Z,7.60
2019-02-22T03:37:05.945Z,7.30
2019-02-22T03:42:11.365Z,7.00
2019-02-22T03:47:16.800Z,7.30
2019-02-22T03:52:23.869Z,7.10
2019-02-22T03:57:29.450Z,6.80
2019-02-22T04:02:34.893Z,6.60
2019-02-22T04:07:40.322Z,6.90
2019-02-22T04:12:45.770Z,7.00
2019-02-22T04:17:51.604Z,7.10
2019-02-22T04:22:57.042Z,7.60
2019-02-22T04:28:02.477Z,7.40
2019-02-22T04:33:07.912Z,7.40
2019-02-22T04:38:13.392Z,7.50
2019-02-22T04:43:18.852Z,7.10
2019-02-22T04:48:24.299Z,6.90
2019-02-22T04:53:30.718Z,6.70
2019-02-22T04:58:36.132Z,6.60
2019-02-22T05:03:41.678Z,6.70
2019-02-22T05:08:47.192Z,7.10
2019-02-22T05:13:52.822Z,6.80
2019-02-22T05:18:58.276Z,6.90
2019-02-22T05:24:03.801Z,6.70
2019-02-22T05:29:09.600Z,6.70
2019-02-22T05:34:15.215Z,7.10
2019-02-22T05:39:20.803Z,6.80
2019-02-22T05:44:26.305Z,6.70
2019-02-22T05:49:31.785Z,6.90
2019-02-22T05:54:37.453Z,6.70
2019-02-22T05:59:42.895Z,6.40
2019-02-22T06:04:48.438Z,6.40
2019-02-22T06:09:53.880Z,6.40
2019-02-22T06:14:59.333Z,6.50
2019-02-22T06:20:08.214Z,6.20
2019-02-22T06:25:13.700Z,6.30
2019-02-22T06:30:19.226Z,6.40
2019-02-22T06:35:24.680Z,6.40
2019-02-22T06:40:30.175Z,6.30
2019-02-22T06:45:35.680Z,6.40
2019-02-22T06:50:41.180Z,6.70
2019-02-22T06:55:46.608Z,6.60
2019-02-22T07:00:53.454Z,7.60
2019-02-22T07:05:58.964Z,9.10
2019-02-22T07:11:06.129Z,10.90
2019-02-22T07:16:11.591Z,12.40
2019-02-22T07:21:17.517Z,13.20
2019-02-22T07:26:24.041Z,13.30
2019-02-22T07:31:29.557Z,13.90
2019-02-22T07:36:35.029Z,14.20
2019-02-22T07:41:40.449Z,14.00
2019-02-22T07:46:45.969Z,15.00
2019-02-22T07:51:51.493Z,16.30
2019-02-22T07:56:56.916Z,17.20
2019-02-22T08:02:03.440Z,16.20
2019-02-22T08:07:08.872Z,15.10
2019-02-22T08:12:14.299Z,15.20
2019-02-22T08:17:19.826Z,15.50
2019-02-22T08:22:25.354Z,15.00
2019-02-22T08:27:30.801Z,15.00
2019-02-22T08:32:37.849Z,15.90
2019-02-22T08:37:43.591Z,16.50
2019-02-22T08:42:49.313Z,17.10
2019-02-22T08:47:54.815Z,17.70
2019-02-22T08:53:01.833Z,16.70
2019-02-22T08:58:07.529Z,14.90
2019-02-22T09:03:13.028Z,14.90
2019-02-22T09:08:20.428Z,15.70
2019-02-22T09:13:27.022Z,16.50
2019-02-22T09:18:32.465Z,17.20
2019-02-22T09:23:37.916Z,17.30
2019-02-22T09:28:43.366Z,17.40
2019-02-22T09:33:49.014Z,17.60
2019-02-22T09:38:54.554Z,17.90
2019-02-22T09:44:00.005Z,18.80
2019-02-22T09:49:06.125Z,18.70
2019-02-22T09:54:11.616Z,18.10
2019-02-22T09:59:17.462Z,17.90
2019-02-22T10:04:22.851Z,18.40
2019-02-22T10:09:28.430Z,18.70
2019-02-22T10:14:33.906Z,18.80
2019-02-22T10:19:39.359Z,17.10
2019-02-22T10:24:44.804Z,15.30
2019-02-22T10:29:51.333Z,13.30
2019-02-22T10:34:56.864Z,12.40
2019-02-22T10:40:02.335Z,11.50
2019-02-22T10:45:10.178Z,10.90
2019-02-22T10:50:17.217Z,11.00
2019-02-22T10:55:22.582Z,11.90
2019-02-22T11:00:28.132Z,12.00
2019-02-22T11:05:33.716Z,11.60
2019-02-22T11:10:39.308Z,10.70
2019-02-22T11:15:44.805Z,10.70
2019-02-22T11:20:50.285Z,10.80
2019-02-22T11:25:56.947Z,10.90
2019-02-22T11:31:02.403Z,10.80
2019-02-22T11:36:07.855Z,10.10
2019-02-22T11:41:13.295Z,10.30
2019-02-22T11:46:19.057Z,10.20
2019-02-22T11:51:24.509Z,10.80
2019-02-22T11:56:30.094Z,10.90
2019-02-22T12:01:35.520Z,10.50
2019-02-22T12:06:40.982Z,10.20
2019-02-22T12:11:46.493Z,10.00
2019-02-22T12:16:52.054Z,9.80
2019-02-22T12:21:57.518Z,10.40
2019-02-22T12:27:03.563Z,10.90
2019-02-22T12:32:09.009Z,11.70
2019-02-22T12:37:15.975Z,12.10
2019-02-22T12:42:21.732Z,13.40
2019-02-22T12:47:27.536Z,14.30
2019-02-22T12:52:32.909Z,15.00
2019-02-22T12:57:38.436Z,15.40
2019-02-22T13:02:45.490Z,17.60
2019-02-22T13:07:52.638Z,19.10
2019-02-22T13:12:58.121Z,19.90
2019-02-22T13:18:03.722Z,19.90
2019-02-22T13:23:09.176Z,18.80
2019-02-22T13:28:15.739Z,18.50
2019-02-22T13:33:21.256Z,17.80
2019-02-22T13:38:26.763Z,14.80
2019-02-22T13:43:32.268Z,13.60
2019-02-22T13:48:37.724Z,13.00
2019-02-22T13:53:43.195Z,12.50
2019-02-22T13:58:48.641Z,12.10
2019-02-22T14:03:55.270Z,11.90
2019-02-22T14:09:00.719Z,11.50
2019-02-22T14:14:08.116Z,11.60
2019-02-22T14:19:13.726Z,11.40
2019-02-22T14:24:19.325Z,11.40
2019-02-22T14:29:24.760Z,11.10
2019-02-22T14:34:30.225Z,10.90
2019-02-22T14:39:35.740Z,12.00
2019-02-22T14:44:41.260Z,12.90
2019-02-22T14:49:46.706Z,13.70
2019-02-22T14:54:52.507Z,14.30
2019-02-22T14:59:58.089Z,12.50
2019-02-22T15:05:03.886Z,11.00
2019-02-22T15:10:10.652Z,12.60
2019-02-22T15:15:17.966Z,14.70
2019-02-22T15:20:23.559Z,13.00
2019-02-22T15:25:29.158Z,11.90
2019-02-22T15:30:35.789Z,12.40
2019-02-22T15:35:41.245Z,12.40
2019-02-22T15:40:46.731Z,11.50
2019-02-22T15:45:52.233Z,10.70
2019-02-22T15:50:57.745Z,10.40
2019-02-22T15:56:04.890Z,9.90
2019-02-22T16:01:10.437Z,9.40
2019-02-22T16:06:15.947Z,8.90
2019-02-22T16:11:21.390Z,8.70
2019-02-22T16:16:26.833Z,8.50
2019-02-22T16:21:32.268Z,8.10
2019-02-22T16:26:37.764Z,8.10
2019-02-22T16:31:43.451Z,8.10
2019-02-22T16:36:48.898Z,8.30
2019-02-22T16:41:54.426Z,8.30
2019-02-22T16:46:59.882Z,8.00
2019-02-22T16:52:05.753Z,7.80
2019-02-22T16:57:11.608Z,7.90
2019-02-22T17:02:17.144Z,8.10
2019-02-22T17:07:22.738Z,7.70
2019-02-22T17:12:28.200Z,7.90
2019-02-22T17:17:33.901Z,7.80
2019-02-22T17:22:39.492Z,7.70
2019-02-22T17:27:45.433Z,7.70
2019-02-22T17:32:50.863Z,7.70
2019-02-22T17:37:56.547Z,7.70
2019-02-22T17:43:02.040Z,7.60
2019-02-22T17:48:07.571Z,7.70
2019-02-22T17:53:13.641Z,7.90
2019-02-22T17:58:24.514Z,7.70
2019-02-22T18:03:26.250Z,7.70
2019-02-22T18:08:31.782Z,7.70
2019-02-22T18:13:37.247Z,7.60
2019-02-22T18:18:43.601Z,7.50
2019-02-22T18:23:49.194Z,7.70
2019-02-22T18:28:54.690Z,7.60
2019-02-22T18:34:00.409Z,7.50
2019-02-22T18:39:06.695Z,7.40
2019-02-22T18:44:12.318Z,7.30
2019-02-22T18:49:17.790Z,7.10
2019-02-22T18:54:24.509Z,7.10
2019-02-22T18:59:31.017Z,7.00
2019-02-22T19:04:36.468Z,7.10
2019-02-22T19:09:41.909Z,7.10
2019-02-22T19:14:47.380Z,7.20
2019-02-22T19:19:52.828Z,7.30
2019-02-22T19:24:58.273Z,7.30
2019-02-22T19:30:05.173Z,6.90
2019-02-22T19:35:10.692Z,7.10
2019-02-22T19:40:21.863Z,7.20
2019-02-22T19:45:27.494Z,7.30
2019-02-22T19:50:41.133Z,7.20
2019-02-22T19:55:40.172Z,7.00
2019-02-22T20:00:45.624Z,6.80
2019-02-22T20:05:51.160Z,6.90
2019-02-22T20:10:56.611Z,7.10
2019-02-22T20:16:02.220Z,6.90
2019-02-22T20:21:07.908Z,6.90
2019-02-22T20:26:13.342Z,7.10
2019-02-22T20:31:20.502Z,6.90
2019-02-22T20:36:28.650Z,6.70
2019-02-22T20:41:34.287Z,6.90
2019-02-22T20:46:39.857Z,6.90
2019-02-22T20:51:45.463Z,6.90
2019-02-22T20:56:50.972Z,7.00
2019-02-22T21:01:56.806Z,6.70
2019-02-22T21:07:03.685Z,6.90
2019-02-22T21:12:09.128Z,7.00
2019-02-22T21:17:14.574Z,7.00
2019-02-22T21:22:20.022Z,6.70
2019-02-22T21:27:25.460Z,6.80
2019-02-22T21:32:30.991Z,6.80
2019-02-22T21:37:38.526Z,7.00
2019-02-22T21:42:44.110Z,7.10
2019-02-22T21:47:54.773Z,7.10
2019-02-22T21:52:56.852Z,7.10
2019-02-22T21:58:02.297Z,7.10
2019-02-22T22:03:07.753Z,7.20
2019-02-22T22:08:13.273Z,7.30
2019-02-22T22:13:18.793Z,7.40
2019-02-22T22:18:24.257Z,7.20
2019-02-22T22:23:29.704Z,6.80
2019-02-22T22:28:35.212Z,6.60
2019-02-22T22:33:40.639Z,6.40
2019-02-22T22:38:46.082Z,6.20
2019-02-22T22:43:51.524Z,6.20
2019-02-22T22:48:57.061Z,6.10
2019-02-22T22:54:02.542Z,6.10
2019-02-22T22:59:07.993Z,6.10
2019-02-22T23:04:13.554Z,6.20
2019-02-22T23:09:20.909Z,6.40
2019-02-22T23:14:26.413Z,6.30
2019-02-22T23:19:32.048Z,6.20
2019-02-22T23:24:37.557Z,6.20
2019-02-22T23:29:42.947Z,6.10
2019-02-22T23:34:48.358Z,5.90
2019-02-22T23:39:53.756Z,6.10
2019-02-22T23:44:59.112Z,6.10
2019-02-22T23:50:06.695Z,6.20
2019-02-22T23:55:12.179Z,6.40
